Time;durP1;ratioP1;P1;durP2;ratioP2;P2;SDS_P1;SDS_P2;PMS_P1;PMS_P2;Temp;Humidity;BMP_temperature;BMP_pressure;BME280_temperature;BME280_humidity;BME280_pressure;Samples;Min_cycle;Max_cycle;Signal;HPM_P1;HPM_P2
2022/02/04 00:07:01;;;;;;;6.53;5.53;;;;;;;10.71;52.85;95061.81;5052252;28;20397;-68
2022/02/04 00:20:30;;;;;;;5.90;4.97;;;;;;;10.74;52.22;95061.19;5051140;28;20032;-68
2022/02/04 00:26:13;;;;;;;4.38;3.97;;;;;;;10.61;52.38;95038.13;5038175;28;20398;-70
2022/02/04 00:33:55;;;;;;;3.80;3.38;;;;;;;10.56;52.18;95039.03;5051393;28;20032;-68
2022/02/04 00:38:50;;;;;;;3.30;3.00;;;;;;;10.49;51.34;95038.69;5051556;28;20469;-69
2022/02/04 00:41:20;;;;;;;3.05;2.85;;;;;;;10.43;51.81;95039.91;5050898;28;20033;-69
2022/02/04 00:43:48;;;;;;;4.00;3.10;;;;;;;10.44;51.49;95049.47;5051328;28;20108;-68
2022/02/04 00:46:23;;;;;;;3.22;2.53;;;;;;;10.47;51.52;95056.81;5051628;28;20421;-68
2022/02/04 00:51:24;;;;;;;4.07;2.80;;;;;;;10.42;51.65;95056.94;5051117;28;20120;-68
2022/02/04 00:56:28;;;;;;;3.70;3.10;;;;;;;10.25;51.64;95081.56;5051146;28;20037;-69
2022/02/04 01:26:09;;;;;;;3.45;3.15;;;;;;;9.10;54.57;95127.00;5050895;28;20106;-68
2022/02/04 01:28:38;;;;;;;4.80;3.35;;;;;;;8.92;54.54;95126.03;5050722;28;20098;-70
2022/02/04 01:31:04;;;;;;;4.05;3.10;;;;;;;9.14;54.63;95130.66;5050359;28;20499;-68
2022/02/04 01:33:30;;;;;;;3.08;2.80;;;;;;;9.21;53.90;95128.38;5050117;28;20227;-68
2022/02/04 01:35:56;;;;;;;2.67;2.47;;;;;;;9.17;53.99;95131.94;5050464;28;20021;-69
2022/02/04 01:38:24;;;;;;;3.78;3.20;;;;;;;9.14;54.40;95132.53;5050471;28;20487;-70
2022/02/04 01:40:49;;;;;;;3.88;3.28;;;;;;;9.31;54.01;95141.47;5050047;28;20085;-68
2022/02/04 01:43:21;;;;;;;5.35;4.00;;;;;;;9.36;53.63;95148.53;5050308;28;20021;-71
2022/02/04 01:45:46;;;;;;;3.70;3.40;;;;;;;9.29;53.29;95132.22;5032668;28;20021;-70
2022/02/04 01:48:12;;;;;;;4.55;3.47;;;;;;;9.27;53.14;95127.22;5032179;28;20091;-69
2022/02/04 01:50:37;;;;;;;5.65;3.35;;;;;;;9.21;52.98;95114.34;5032484;28;20067;-70
2022/02/04 01:53:04;;;;;;;4.35;3.95;;;;;;;9.18;52.94;95110.41;5050400;28;20032;-69
2022/02/04 01:55:29;;;;;;;3.50;3.20;;;;;;;9.20;52.80;95126.81;5050375;28;20021;-70
2022/02/04 01:57:54;;;;;;;3.40;3.10;;;;;;;9.05;53.31;95127.88;5050384;28;20189;-70
2022/02/04 02:00:20;;;;;;;4.88;3.63;;;;;;;8.97;53.56;95114.53;5049477;28;20034;-69
2022/02/04 02:02:45;;;;;;;4.63;3.70;;;;;;;8.93;53.73;95116.19;5050172;28;20481;-70
2022/02/04 02:05:11;;;;;;;4.18;3.63;;;;;;;8.96;53.54;95129.69;5034707;28;20021;-70
2022/02/04 02:07:43;;;;;;;4.53;3.40;;;;;;;8.85;53.65;95131.72;5053870;28;20118;-69
2022/02/04 02:10:12;;;;;;;3.47;3.17;;;;;;;8.56;54.52;95110.75;5036127;28;20387;-70
2022/02/04 02:13:11;;;;;;;3.88;3.13;;;;;;;8.58;55.15;95129.00;5054380;28;20477;-69
2022/02/04 02:15:46;;;;;;;4.03;3.63;;;;;;;8.18;55.89;95123.25;5054276;28;20037;-69
2022/02/04 02:42:21;;;;;;;6.63;3.53;;;;;;;8.49;54.90;95149.28;5053154;28;20032;-70
2022/02/04 02:56:02;;;;;;;4.78;3.83;;;;;;;8.47;54.93;95143.50;5053347;28;20117;-69
2022/02/04 02:58:30;;;;;;;4.45;4.05;;;;;;;8.40;54.81;95145.75;5052928;28;20029;-70
2022/02/04 03:03:23;;;;;;;4.43;4.03;;;;;;;8.02;54.22;95095.41;5052028;28;20021;-69
2022/02/04 03:05:49;;;;;;;5.40;4.47;;;;;;;8.24;54.37;95148.59;5033951;28;20105;-70
2022/02/04 03:08:15;;;;;;;5.22;4.70;;;;;;;8.10;54.69;95139.81;5052891;28;20545;-70
2022/02/04 03:10:40;;;;;;;5.05;4.55;;;;;;;8.07;54.54;95148.31;5034684;28;20433;-69
2022/02/04 03:13:07;;;;;;;4.90;4.40;;;;;;;8.09;54.74;95162.09;5052665;28;20025;-69
2022/02/04 03:15:39;;;;;;;6.40;5.07;;;;;;;8.03;54.95;95166.63;5035012;28;20381;-69
2022/02/04 03:18:09;;;;;;;5.22;4.72;;;;;;;7.99;54.31;95170.16;5052043;28;20025;-69
2022/02/04 03:20:46;;;;;;;6.00;5.22;;;;;;;7.96;54.17;95176.03;5051871;28;20056;-69
2022/02/04 03:23:11;;;;;;;5.05;4.13;;;;;;;7.81;54.22;95161.91;5052967;28;20052;-69
2022/02/04 03:25:41;;;;;;;6.78;5.65;;;;;;;7.77;54.48;95170.72;5053081;28;20021;-70
2022/02/04 03:28:11;;;;;;;5.78;5.05;;;;;;;7.75;54.81;95167.56;5035234;28;20040;-69
2022/02/04 03:30:38;;;;;;;5.55;5.05;;;;;;;7.52;54.69;95137.41;5052132;28;20045;-70
2022/02/04 03:33:06;;;;;;;5.95;5.35;;;;;;;7.65;54.65;95162.41;5052868;28;20060;-69
2022/02/04 03:35:32;;;;;;;6.55;5.13;;;;;;;7.68;54.85;95178.50;5052295;28;20021;-70
2022/02/04 03:37:57;;;;;;;6.07;5.28;;;;;;;7.61;54.69;95166.69;5052325;28;20075;-69
2022/02/04 03:40:24;;;;;;;6.47;5.40;;;;;;;7.50;55.17;95158.09;5034314;28;20048;-70
2022/02/04 03:42:50;;;;;;;5.85;5.25;;;;;;;7.47;55.33;95156.81;5052436;28;20032;-69
2022/02/04 03:45:16;;;;;;;8.35;6.65;;;;;;;7.46;54.91;95160.50;5034545;28;20025;-69
2022/02/04 03:47:42;;;;;;;8.32;6.57;;;;;;;7.44;55.37;95157.38;5052537;28;20025;-69
2022/02/04 03:50:08;;;;;;;8.40;6.60;;;;;;;7.43;54.78;95162.94;5052309;28;20335;-70
2022/02/04 03:52:33;;;;;;;8.38;7.40;;;;;;;7.42;54.97;95172.75;5052797;28;20473;-69
2022/02/04 03:54:59;;;;;;;10.05;7.38;;;;;;;7.50;54.96;95182.69;5052565;28;20029;-69
2022/02/04 03:57:25;;;;;;;12.15;7.95;;;;;;;7.41;54.69;95163.22;5052637;28;20028;-69
2022/02/04 03:59:50;;;;;;;14.38;8.40;;;;;;;7.41;54.94;95173.00;5052890;28;20021;-69
2022/02/04 04:02:16;;;;;;;10.70;7.82;;;;;;;7.44;55.46;95175.88;5052671;28;20036;-69
2022/02/04 04:04:41;;;;;;;9.73;7.60;;;;;;;7.33;54.79;95161.19;5035029;28;20033;-69
2022/02/04 04:07:07;;;;;;;10.13;7.47;;;;;;;7.26;55.09;95150.16;5052710;28;20025;-70
2022/02/04 04:09:36;;;;;;;9.75;7.10;;;;;;;7.41;55.13;95178.31;5051647;28;20044;-67
2022/02/04 04:12:01;;;;;;;11.30;7.97;;;;;;;7.32;55.08;95169.41;5051583;28;20043;-73
2022/02/04 04:14:26;;;;;;;12.45;8.63;;;;;;;7.30;55.00;95167.03;5051770;28;20037;-70
2022/02/04 04:16:52;;;;;;;13.00;8.55;;;;;;;7.21;55.42;95166.09;5033959;28;20029;-70
2022/02/04 04:19:17;;;;;;;8.80;7.22;;;;;;;7.32;55.06;95188.75;5051148;28;20103;-69
2022/02/04 04:21:43;;;;;;;10.52;7.28;;;;;;;7.18;55.15;95177.25;5051069;28;20485;-69
2022/02/04 04:24:08;;;;;;;11.93;8.35;;;;;;;7.24;55.48;95190.13;5051493;28;20412;-69
2022/02/04 04:26:33;;;;;;;9.73;7.75;;;;;;;7.26;55.44;95190.63;5051390;28;20021;-69
2022/02/04 04:28:59;;;;;;;7.93;6.60;;;;;;;7.35;55.34;95208.53;5032590;28;20029;-69
2022/02/04 04:31:24;;;;;;;9.73;8.00;;;;;;;7.33;55.47;95208.84;5051795;28;20114;-68
2022/02/04 04:33:50;;;;;;;11.80;9.15;;;;;;;7.26;54.92;95198.56;5051889;28;20401;-68
2022/02/04 04:36:17;;;;;;;14.90;9.02;;;;;;;7.31;55.56;95200.38;5051508;28;20025;-68
2022/02/04 04:38:52;;;;;;;13.70;9.48;;;;;;;7.23;54.88;95191.19;5051211;28;20032;-67
2022/02/04 04:44:07;;;;;;;14.15;9.88;;;;;;;7.37;54.92;95223.09;5051465;28;20115;-69
2022/02/04 05:29:37;;;;;;;39.53;19.73;;;;;;;7.14;56.72;95253.72;5050686;28;20036;-68
2022/02/04 05:32:03;;;;;;;51.42;19.83;;;;;;;7.15;55.92;95250.00;5050983;28;20188;-68
2022/02/04 05:34:30;;;;;;;49.05;21.48;;;;;;;7.15;56.45;95250.00;5050134;28;20109;-68
2022/02/04 05:37:03;;;;;;;53.67;22.90;;;;;;;7.08;56.55;95222.31;5050143;28;20025;-68
2022/02/04 05:39:35;;;;;;;55.45;21.48;;;;;;;7.26;56.78;95248.81;5032076;28;20029;-68
2022/02/04 05:42:02;;;;;;;;;;;;;;;7.28;56.58;95249.34;5053935;28;20055;-68
2022/02/04 05:44:28;;;;;;;55.13;21.88;;;;;;;7.32;56.31;95248.78;5054631;28;19938;-67
2022/02/04 05:47:00;;;;;;;72.45;24.52;;;;;;;7.22;56.00;95241.75;5036309;28;20033;-67
2022/02/04 05:49:28;;;;;;;47.20;21.40;;;;;;;7.27;56.11;95258.38;5053689;28;20100;-68
2022/02/04 05:52:15;;;;;;;53.75;22.95;;;;;;;7.26;56.28;95256.78;5054237;28;20279;-68
2022/02/04 05:55:15;;;;;;;60.88;24.05;;;;;;;7.36;56.41;95261.19;5036214;28;20070;-68
2022/02/04 05:57:42;;;;;;;63.55;24.48;;;;;;;7.34;55.96;95251.94;5053729;28;20433;-69
2022/02/04 06:00:31;;;;;;;66.80;24.00;;;;;;;7.38;56.59;95260.91;5053624;28;20032;-68
2022/02/04 06:22:09;;;;;;;40.25;20.27;;;;;;;6.96;61.83;95272.91;5046104;28;20397;-70
2022/02/04 06:24:34;;;;;;;37.55;22.02;;;;;;;7.57;60.89;95277.63;5053689;28;20082;-68
2022/02/04 06:27:00;;;;;;;33.75;19.73;;;;;;;7.84;59.64;95276.31;5053425;28;20025;-69
2022/02/04 06:29:26;;;;;;;39.25;23.05;;;;;;;8.41;58.30;95274.53;5053053;28;20108;-68
2022/02/04 06:31:52;;;;;;;34.67;21.35;;;;;;;8.59;58.27;95282.47;5053513;28;20025;-69
2022/02/04 06:34:18;;;;;;;37.78;21.85;;;;;;;9.07;57.27;95284.94;5053904;28;20025;-68
2022/02/04 06:36:44;;;;;;;39.20;22.75;;;;;;;9.07;57.00;95279.66;5036006;28;20032;-69
2022/02/04 06:39:09;;;;;;;38.15;22.40;;;;;;;9.22;56.66;95293.75;5053739;28;20059;-70
2022/02/04 06:41:34;;;;;;;34.45;21.25;;;;;;;9.42;56.08;95287.28;5035338;28;20032;-70
2022/02/04 06:44:02;;;;;;;38.22;22.85;;;;;;;9.72;55.60;95289.38;5053701;28;20036;-69
2022/02/04 06:46:28;;;;;;;33.83;21.58;;;;;;;9.86;55.92;95279.56;5035791;28;20504;-70
2022/02/04 06:48:54;;;;;;;39.97;23.65;;;;;;;10.03;54.84;95291.44;5035217;28;20033;-70
2022/02/04 06:51:19;;;;;;;34.55;21.35;;;;;;;9.93;54.59;95281.03;5052570;28;20021;-68
2022/02/04 06:53:45;;;;;;;31.55;20.73;;;;;;;9.07;56.24;95292.91;5052950;28;20494;-69
2022/02/04 06:56:10;;;;;;;31.83;20.48;;;;;;;9.31;55.69;95289.31;5035217;28;20021;-67
2022/02/04 06:58:36;;;;;;;33.80;21.33;;;;;;;9.08;56.74;95313.06;5052921;28;20021;-67
2022/02/04 07:01:01;;;;;;;32.65;20.35;;;;;;;9.32;55.98;95286.41;5034678;28;20029;-69
2022/02/04 07:03:27;;;;;;;29.48;19.60;;;;;;;8.57;57.11;95268.72;5052775;28;20064;-67
2022/02/04 07:05:57;;;;;;;27.23;19.50;;;;;;;8.59;58.67;95300.25;5043001;28;20021;-69
2022/02/04 07:13:42;;;;;;;26.00;17.35;;;;;;;7.43;60.87;95279.38;5052681;28;20529;-67
2022/02/04 07:16:28;;;;;;;27.38;19.38;;;;;;;8.27;59.88;95301.72;5052635;28;20029;-68
2022/02/04 07:21:37;;;;;;;25.10;17.30;;;;;;;8.15;60.62;95319.91;5048892;28;20526;-68
2022/02/04 07:24:03;;;;;;;19.52;17.38;;;;;;;8.08;58.99;95246.03;5052543;28;20017;-67
2022/02/04 07:26:30;;;;;;;21.10;16.90;;;;;;;9.06;57.25;95311.78;5034713;28;20021;-68
2022/02/04 07:28:59;;;;;;;19.48;16.58;;;;;;;8.80;57.79;95296.25;5052202;28;20028;-67
2022/02/04 07:31:28;;;;;;;19.65;15.68;;;;;;;8.99;57.81;95282.94;5052178;28;20390;-68
2022/02/04 07:34:08;;;;;;;18.98;17.08;;;;;;;9.04;56.02;95239.63;5052700;28;20433;-68
2022/02/04 07:41:50;;;;;;;23.58;16.10;;;;;;;10.05;54.37;95258.19;5052495;28;20037;-70
2022/02/04 07:44:16;;;;;;;19.95;15.98;;;;;;;10.50;53.07;95300.91;5034581;28;20445;-68
2022/02/04 07:46:43;;;;;;;19.30;15.80;;;;;;;10.76;52.63;95287.81;5052189;28;20083;-66
2022/02/04 07:49:09;;;;;;;16.85;14.98;;;;;;;10.54;52.24;95258.50;5051906;28;20550;-68
2022/02/04 07:51:35;;;;;;;19.33;16.25;;;;;;;11.24;51.46;95337.03;5050931;28;20098;-68
2022/02/04 07:54:00;;;;;;;18.55;16.58;;;;;;;11.11;51.46;95338.66;5052114;28;20017;-69
2022/02/04 07:56:26;;;;;;;16.83;14.98;;;;;;;9.54;54.87;95335.41;5051929;28;20029;-68
2022/02/04 07:58:57;;;;;;;16.88;15.05;;;;;;;9.37;55.84;95281.00;5051449;28;20044;-68
2022/02/04 08:01:27;;;;;;;22.63;14.70;;;;;;;9.15;57.17;95333.91;5051590;28;20029;-69
2022/02/04 08:06:27;;;;;;;16.90;15.15;;;;;;;8.62;57.19;95256.47;5051373;28;20033;-68
2022/02/04 08:09:00;;;;;;;16.98;14.43;;;;;;;8.59;58.60;95354.06;5051469;28;20025;-67
2022/02/04 08:11:50;;;;;;;18.05;16.02;;;;;;;8.88;56.89;95281.53;5051355;28;20025;-67
2022/02/04 08:32:37;;;;;;;16.77;15.18;;;;;;;10.12;53.86;95316.25;5051415;28;20040;-67
2022/02/04 08:48:54;;;;;;;15.98;14.13;;;;;;;9.38;56.12;95327.69;5051130;28;20083;-67
2022/02/04 08:56:07;;;;;;;16.55;14.85;;;;;;;10.53;52.75;95331.41;5050939;28;20025;-65
2022/02/04 08:58:38;;;;;;;14.43;13.13;;;;;;;10.08;53.59;95278.06;5050822;28;20100;-67
2022/02/04 09:01:12;;;;;;;16.17;14.55;;;;;;;10.92;52.38;95328.19;5050833;28;20028;-69
2022/02/04 09:06:17;;;;;;;14.98;13.48;;;;;;;9.57;53.11;95266.56;5050743;28;20017;-67
2022/02/04 09:08:47;;;;;;;15.55;14.13;;;;;;;10.34;52.09;95270.41;5050970;28;20029;-67
2022/02/04 09:12:04;;;;;;;15.52;14.02;;;;;;;10.97;52.19;95336.03;5050864;28;20025;-69
2022/02/04 09:19:25;;;;;;;15.80;13.55;;;;;;;10.29;52.20;95289.91;5050426;28;20021;-69
2022/02/04 09:22:05;;;;;;;14.48;13.07;;;;;;;9.55;55.08;95358.22;5049772;28;20083;-69
2022/02/04 09:24:30;;;;;;;14.40;13.00;;;;;;;10.92;50.93;95354.78;5050425;28;20067;-68
2022/02/04 09:26:56;;;;;;;14.90;13.40;;;;;;;10.18;53.63;95341.66;5050735;28;20052;-68
2022/02/04 09:29:22;;;;;;;14.55;13.05;;;;;;;10.51;51.79;95346.91;5049983;28;20029;-70
2022/02/04 09:31:48;;;;;;;15.20;13.68;;;;;;;10.60;51.96;95321.97;5050298;28;20033;-69
2022/02/04 09:34:13;;;;;;;13.30;12.05;;;;;;;9.77;53.47;95331.78;5050694;28;20370;-70
2022/02/04 09:36:39;;;;;;;14.43;12.93;;;;;;;9.41;53.84;95278.53;5050006;28;20024;-70
2022/02/04 09:39:06;;;;;;;13.68;12.27;;;;;;;10.04;51.92;95242.56;5050329;28;20067;-69
2022/02/04 09:41:33;;;;;;;21.45;12.30;;;;;;;10.97;50.69;95305.97;5050245;28;20159;-70
2022/02/04 09:43:58;;;;;;;14.30;11.80;;;;;;;10.41;51.62;95335.38;5050464;28;20111;-70
2022/02/04 09:46:24;;;;;;;13.38;11.98;;;;;;;9.19;53.56;95244.69;5050567;28;20425;-70
2022/02/04 09:48:55;;;;;;;13.65;11.93;;;;;;;9.58;54.61;95331.09;5050418;28;20025;-70
2022/02/04 09:51:28;;;;;;;12.63;11.27;;;;;;;9.77;52.86;95296.47;5049680;28;20028;-69
2022/02/04 10:07:48;;;;;;;11.30;10.15;;;;;;;9.87;51.73;95283.78;5049520;28;20033;-67
2022/02/04 10:13:21;;;;;;;11.13;9.93;;;;;;;10.77;50.25;95285.94;5050981;28;20366;-70
2022/02/04 10:18:35;;;;;;;10.77;9.75;;;;;;;11.01;50.00;95293.66;5050325;28;20110;-69
2022/02/04 10:21:08;;;;;;;10.68;9.63;;;;;;;10.64;49.70;95250.31;5049604;28;20115;-69
2022/02/04 10:24:00;;;;;;;9.73;8.82;;;;;;;10.09;51.81;95299.06;5050274;28;20035;-70
2022/02/04 10:26:26;;;;;;;10.82;9.73;;;;;;;10.90;49.24;95301.88;5041636;28;20048;-70
2022/02/04 10:28:53;;;;;;;11.27;10.15;;;;;;;10.98;49.91;95324.31;5053662;28;20029;-66
2022/02/04 10:31:21;;;;;;;12.27;9.85;;;;;;;10.92;50.41;95307.66;5053824;28;20031;-67
2022/02/04 10:33:59;;;;;;;9.30;8.40;;;;;;;10.34;51.02;95297.78;5053925;28;20460;-67
2022/02/04 10:36:53;;;;;;;9.00;8.18;;;;;;;10.83;50.31;95296.16;5053320;28;20389;-66
2022/02/04 10:39:52;;;;;;;9.77;8.82;;;;;;;10.78;50.64;95312.25;5038483;28;20028;-68
2022/02/04 10:59:11;;;;;;;8.77;8.00;;;;;;;11.24;48.23;95278.44;5053077;28;20048;-66
2022/02/04 11:03:56;;;;;;;8.55;7.78;;;;;;;11.89;46.50;95262.66;5052769;28;20036;-64
2022/02/04 11:09:06;;;;;;;10.13;7.80;;;;;;;13.10;44.78;95269.97;5052570;28;20013;-67
2022/02/04 11:34:25;;;;;;;7.88;7.18;;;;;;;11.05;50.04;95223.50;5028621;28;20040;-64
2022/02/04 11:48:56;;;;;;;10.48;7.30;;;;;;;10.88;48.51;95204.78;5052023;28;20044;-64
2022/02/04 11:52:03;;;;;;;9.88;7.90;;;;;;;11.42;48.61;95186.91;5050814;28;20090;-63
2022/02/04 11:54:32;;;;;;;11.82;7.90;;;;;;;13.14;44.88;95193.47;5051668;28;20021;-63
2022/02/04 11:56:57;;;;;;;8.32;7.63;;;;;;;13.78;42.74;95184.63;5051898;28;20416;-63
2022/02/04 11:59:57;;;;;;;9.20;8.40;;;;;;;12.45;44.78;95193.56;5051564;28;20021;-63
2022/02/04 12:02:26;;;;;;;12.32;8.23;;;;;;;11.81;46.85;95183.41;5016502;28;20108;-63
2022/02/04 12:05:04;;;;;;;7.68;6.88;;;;;;;9.87;51.78;95184.69;5051415;28;20082;-63
2022/02/04 12:07:39;;;;;;;8.63;7.82;;;;;;;12.14;46.36;95161.72;5051168;28;20017;-63
2022/02/04 12:10:13;;;;;;;9.75;7.93;;;;;;;13.10;44.44;95165.03;5051217;28;20025;-63
2022/02/04 12:15:28;;;;;;;8.88;8.02;;;;;;;12.07;46.45;95161.38;5051736;28;20507;-63
2022/02/04 12:17:55;;;;;;;9.05;8.15;;;;;;;11.56;47.48;95131.63;5033530;28;20087;-63
2022/02/04 12:20:53;;;;;;;8.23;7.45;;;;;;;11.35;48.68;95136.72;5050862;28;20036;-63
2022/02/04 12:25:56;;;;;;;8.15;7.45;;;;;;;13.09;44.39;95118.88;5051115;28;20024;-65
2022/02/04 12:28:49;;;;;;;9.25;8.00;;;;;;;13.41;43.45;95116.72;5033356;28;20111;-65
2022/02/04 12:31:24;;;;;;;8.60;7.80;;;;;;;12.98;43.79;95115.75;5050996;28;20431;-62
2022/02/04 12:34:14;;;;;;;9.13;6.47;;;;;;;10.78;48.06;95115.34;5033257;28;20032;-64
2022/02/04 12:36:42;;;;;;;9.10;8.18;;;;;;;10.34;50.07;95116.97;5050710;28;20051;-63
2022/02/04 12:39:25;;;;;;;8.55;7.65;;;;;;;10.52;50.69;95101.13;5050679;28;20025;-64
2022/02/04 12:41:56;;;;;;;9.02;7.57;;;;;;;10.62;49.04;95079.59;5050738;28;20112;-64
2022/02/04 12:44:43;;;;;;;9.00;8.10;;;;;;;10.80;49.93;95097.22;5051075;28;20473;-63
2022/02/04 12:47:14;;;;;;;11.65;8.98;;;;;;;10.56;49.77;95086.91;5050231;28;20045;-66
2022/02/04 12:49:56;;;;;;;8.65;6.82;;;;;;;9.63;51.65;95066.22;5050190;28;20021;-62
2022/02/04 12:54:58;;;;;;;9.98;8.98;;;;;;;9.87;50.52;94983.56;5051009;28;20469;-64
2022/02/04 12:57:32;;;;;;;8.52;6.85;;;;;;;10.65;50.53;95100.28;5032734;28;20029;-65
2022/02/04 13:10:41;;;;;;;8.98;8.07;;;;;;;11.67;47.92;95049.53;5050191;28;20040;-64
2022/02/04 13:13:14;;;;;;;8.20;7.00;;;;;;;10.92;48.94;95052.19;5032691;28;20021;-63
2022/02/04 13:15:41;;;;;;;6.80;5.95;;;;;;;9.96;51.11;95047.41;5032578;28;20028;-63
2022/02/04 13:18:12;;;;;;;7.85;7.15;;;;;;;10.61;49.91;95046.91;5050389;28;20033;-63
2022/02/04 13:20:40;;;;;;;8.10;7.40;;;;;;;11.12;49.11;95058.06;5049966;28;20040;-64
2022/02/04 13:23:12;;;;;;;8.20;7.43;;;;;;;10.70;49.10;95054.94;5049885;28;20294;-64
2022/02/04 13:25:43;;;;;;;8.50;7.70;;;;;;;11.28;48.01;95061.84;5050272;28;20029;-64
2022/02/04 13:28:31;;;;;;;8.20;7.40;;;;;;;11.11;48.47;95033.31;5032160;28;20033;-64
2022/02/04 13:31:07;;;;;;;8.55;7.75;;;;;;;11.17;48.22;95060.56;5031755;28;20013;-63
2022/02/04 13:33:39;;;;;;;10.13;8.10;;;;;;;11.54;47.44;95039.81;5032491;28;20059;-64
2022/02/04 13:38:50;;;;;;;8.55;7.65;;;;;;;11.24;48.51;95036.94;5048414;28;20059;-64
2022/02/04 13:42:13;;;;;;;7.43;6.82;;;;;;;11.02;48.49;95029.84;5032311;28;20482;-65
2022/02/04 13:47:01;;;;;;;9.60;8.02;;;;;;;12.13;46.59;95042.81;5050191;28;20366;-63
2022/02/04 13:49:56;;;;;;;8.57;7.80;;;;;;;11.15;48.22;95017.47;5031843;28;20267;-64
2022/02/04 13:52:45;;;;;;;9.32;8.25;;;;;;;11.98;46.88;95020.09;5049301;28;20028;-64
2022/02/04 13:58:44;;;;;;;8.75;8.00;;;;;;;11.45;48.21;95042.44;5005228;28;20036;-64
2022/02/04 14:03:47;;;;;;;9.18;7.88;;;;;;;11.16;47.82;95011.88;5054119;28;20520;-63
2022/02/04 14:06:20;;;;;;;9.32;8.38;;;;;;;11.20;49.24;95038.63;5054216;28;20021;-63
2022/02/04 14:08:52;;;;;;;9.00;8.13;;;;;;;11.07;49.93;95031.56;5053586;28;20023;-65
2022/02/04 14:11:32;;;;;;;10.48;7.88;;;;;;;11.22;49.02;95039.13;5035865;28;20439;-64
2022/02/04 14:13:59;;;;;;;9.27;7.93;;;;;;;11.29;48.77;95036.78;5054255;28;20072;-63
2022/02/04 14:16:26;;;;;;;8.75;7.95;;;;;;;11.16;48.68;95035.84;5053783;28;20017;-63
2022/02/04 14:18:52;;;;;;;8.60;7.80;;;;;;;11.51;47.84;94993.25;5053551;28;20400;-63
2022/02/04 14:21:18;;;;;;;13.02;8.05;;;;;;;11.26;48.59;94997.47;5053435;28;20040;-64
2022/02/04 14:23:47;;;;;;;10.80;6.65;;;;;;;9.76;51.82;94979.59;5053142;28;20477;-65
2022/02/04 14:26:35;;;;;;;9.10;8.20;;;;;;;10.73;50.96;95027.69;5053564;28;20037;-64
2022/02/04 14:29:25;;;;;;;8.63;7.78;;;;;;;10.63;50.02;95012.78;5053219;28;20021;-65
2022/02/04 14:37:25;;;;;;;8.52;7.80;;;;;;;10.73;50.49;95006.41;5053216;28;20029;-64
2022/02/04 15:03:38;;;;;;;8.10;6.32;;;;;;;11.19;48.13;94973.19;5053183;28;20029;-62
2022/02/04 15:06:13;;;;;;;7.45;6.70;;;;;;;11.14;48.17;95000.72;5052731;28;20402;-62
2022/02/04 15:08:40;;;;;;;9.63;7.20;;;;;;;11.15;47.86;94977.56;5051861;28;20481;-62
2022/02/04 15:11:18;;;;;;;9.25;7.72;;;;;;;10.65;49.63;94969.94;5034355;28;20029;-62
2022/02/04 15:13:46;;;;;;;7.78;7.00;;;;;;;10.87;48.48;94967.19;5051760;28;20063;-62
2022/02/04 15:16:12;;;;;;;8.20;7.50;;;;;;;10.82;49.03;94975.28;5052472;28;20025;-62
2022/02/04 15:18:40;;;;;;;7.63;6.78;;;;;;;11.40;47.45;94944.84;5034537;28;20102;-62
2022/02/04 15:21:12;;;;;;;8.20;7.40;;;;;;;10.97;48.60;94963.44;5052370;28;20159;-62
2022/02/04 15:23:38;;;;;;;7.75;7.00;;;;;;;10.85;49.37;94971.22;5034086;28;20029;-66
2022/02/04 15:26:04;;;;;;;7.30;6.70;;;;;;;10.80;49.63;94947.41;5034505;28;20021;-63
2022/02/04 15:28:40;;;;;;;7.03;6.43;;;;;;;11.09;48.77;94968.16;5052155;28;20029;-63
2022/02/04 15:31:11;;;;;;;7.95;7.03;;;;;;;11.70;47.66;94974.31;5052495;28;20021;-68
2022/02/04 15:33:37;;;;;;;7.75;6.97;;;;;;;11.20;48.28;94964.09;5034417;28;20021;-63
2022/02/04 15:36:04;;;;;;;7.18;6.45;;;;;;;11.08;48.57;94978.03;5052376;28;20028;-62
2022/02/04 15:38:30;;;;;;;11.35;7.68;;;;;;;11.61;48.14;94968.19;5051309;28;20075;-64
2022/02/04 15:40:58;;;;;;;7.82;6.43;;;;;;;11.06;48.21;94928.88;5051850;28;20389;-64
2022/02/04 15:43:26;;;;;;;8.68;6.97;;;;;;;11.00;48.59;94906.13;5051873;28;20025;-64
2022/02/04 15:51:05;;;;;;;7.88;7.15;;;;;;;11.78;47.31;94959.41;5051966;28;20245;-63
2022/02/04 15:53:38;;;;;;;9.52;7.05;;;;;;;10.97;48.19;94899.56;5033760;28;20037;-63
2022/02/04 16:01:48;;;;;;;8.15;7.05;;;;;;;11.59;47.58;94967.72;5051638;28;20469;-64
2022/02/04 16:04:00;;;;;;;7.53;6.72;;;;;;;11.42;47.96;94942.66;5049596;28;20470;-66
2022/02/04 16:06:25;;;;;;;7.70;6.90;;;;;;;11.48;48.06;94977.13;5051815;28;20028;-64
2022/02/04 16:08:54;;;;;;;7.68;6.88;;;;;;;11.04;49.19;94936.38;5037169;28;20017;-63
2022/02/04 16:11:48;;;;;;;9.25;7.05;;;;;;;10.68;49.29;94921.41;5051542;28;20090;-66
2022/02/04 16:14:25;;;;;;;9.02;6.82;;;;;;;11.31;48.80;94969.91;5051690;28;20025;-69
2022/02/04 16:16:59;;;;;;;8.30;7.32;;;;;;;11.47;47.70;94949.72;5033877;28;20098;-65
2022/02/04 16:25:02;;;;;;;8.90;8.00;;;;;;;11.76;47.16;94956.28;5048689;28;20039;-65
2022/02/04 16:29:56;;;;;;;11.90;8.38;;;;;;;11.80;47.14;94973.19;5051342;28;20071;-66
2022/02/04 16:32:22;;;;;;;10.73;8.02;;;;;;;11.24;48.98;94967.72;5033541;28;20319;-67
2022/02/04 16:34:53;;;;;;;10.25;8.20;;;;;;;11.14;49.16;94962.69;5051113;28;20056;-66
2022/02/04 16:37:29;;;;;;;11.63;8.13;;;;;;;11.04;49.29;94965.63;5050732;28;20499;-68
2022/02/04 16:39:56;;;;;;;10.52;7.72;;;;;;;10.63;50.79;94942.84;5050819;28;20473;-67
2022/02/04 16:42:22;;;;;;;8.60;7.80;;;;;;;10.52;50.46;94949.53;5050861;28;20036;-66
2022/02/04 16:44:47;;;;;;;9.18;8.27;;;;;;;10.45;50.17;94925.28;5033199;28;20021;-68
2022/02/04 16:47:13;;;;;;;8.52;7.65;;;;;;;10.39;51.83;94967.97;5032978;28;20071;-66
2022/02/04 16:49:39;;;;;;;12.20;8.10;;;;;;;10.30;50.92;94921.94;5050786;28;20021;-66
2022/02/04 16:52:05;;;;;;;12.23;8.60;;;;;;;10.52;50.83;94942.34;5032325;28;20103;-66
2022/02/04 16:54:33;;;;;;;11.82;8.50;;;;;;;10.44;50.20;94929.00;5050761;28;20111;-66
2022/02/04 16:57:00;;;;;;;11.15;8.07;;;;;;;10.35;50.21;94911.16;5050676;28;20021;-67
2022/02/04 16:59:26;;;;;;;9.15;8.25;;;;;;;10.34;50.59;94930.88;5050393;28;20385;-66
2022/02/04 17:01:53;;;;;;;11.35;8.88;;;;;;;10.71;50.35;94970.56;5032853;28;20127;-67
2022/02/04 17:04:19;;;;;;;16.90;9.73;;;;;;;10.24;50.56;94901.91;5033147;28;20024;-67
2022/02/04 17:06:49;;;;;;;13.07;8.82;;;;;;;9.93;52.26;94925.00;5051168;28;20028;-68
2022/02/04 17:11:43;;;;;;;9.95;8.90;;;;;;;9.99;51.79;94947.72;5051145;28;20033;-68
2022/02/04 17:14:09;;;;;;;10.00;8.90;;;;;;;10.02;52.36;94966.47;5050815;28;20028;-67
2022/02/04 17:16:41;;;;;;;9.27;8.05;;;;;;;9.25;53.75;94922.34;5050663;28;20052;-67
2022/02/04 17:19:06;;;;;;;8.73;7.82;;;;;;;9.68;53.60;94976.91;5050140;28;20120;-67
2022/02/04 17:21:34;;;;;;;13.75;8.52;;;;;;;9.75;52.88;94967.41;5050285;28;20037;-67
2022/02/04 17:24:00;;;;;;;9.70;8.70;;;;;;;9.06;52.68;94871.34;5049719;28;20024;-64
2022/02/04 17:26:25;;;;;;;9.50;8.60;;;;;;;8.96;53.93;94919.31;5050245;28;20527;-65
2022/02/04 17:28:51;;;;;;;11.40;8.93;;;;;;;9.47;54.16;95003.09;5050167;28;20048;-64
2022/02/04 17:31:17;;;;;;;9.55;8.55;;;;;;;8.88;54.14;94926.09;5050111;28;20029;-64
2022/02/04 17:33:44;;;;;;;9.15;8.25;;;;;;;9.13;54.67;95007.03;5050572;28;20021;-66
2022/02/04 17:36:10;;;;;;;9.57;8.63;;;;;;;8.90;55.74;95021.28;5049378;28;20036;-63
2022/02/04 17:38:36;;;;;;;8.93;8.05;;;;;;;8.74;55.58;95002.22;5049305;28;20037;-63
2022/02/04 17:41:02;;;;;;;10.02;9.02;;;;;;;8.18;55.30;94876.84;5049714;28;20082;-63
2022/02/04 17:43:28;;;;;;;10.13;8.98;;;;;;;8.52;55.93;94981.72;5032289;28;20029;-63
2022/02/04 17:45:54;;;;;;;10.20;8.50;;;;;;;8.65;56.37;95028.66;5050127;28;20032;-63
2022/02/04 17:50:49;;;;;;;10.68;8.52;;;;;;;8.34;56.16;94989.44;5050003;28;20052;-65
2022/02/04 17:53:21;;;;;;;10.38;7.85;;;;;;;8.57;56.47;95053.19;5049669;28;20484;-64
2022/02/04 17:55:54;;;;;;;8.05;7.25;;;;;;;8.60;55.83;95034.06;5042166;28;20112;-64
2022/02/04 17:58:29;;;;;;;12.63;9.18;;;;;;;8.37;55.65;94982.78;5049865;28;20025;-64
2022/02/04 18:08:56;;;;;;;10.23;8.27;;;;;;;7.97;57.63;95079.59;5049369;28;20040;-67
2022/02/04 18:11:22;;;;;;;8.77;7.80;;;;;;;7.66;58.60;95060.72;5031699;28;20017;-68
2022/02/04 18:13:47;;;;;;;9.50;7.70;;;;;;;8.21;57.31;95080.28;5049934;28;20029;-64
2022/02/04 18:16:14;;;;;;;8.70;7.40;;;;;;;7.76;56.40;94986.44;5049584;28;20420;-64